Time;durP1;ratioP1;P1;durP2;ratioP2;P2;SDS_P1;SDS_P2;PMS_P1;PMS_P2;Temp;Humidity;BMP_temperature;BMP_pressure;BME280_temperature;BME280_humidity;BME280_pressure;Samples;Min_cycle;Max_cycle;Signal;HPM_P1;HPM_P2
2021/12/30 00:00:11;;;;;;;23.23;16.08;;;;;;;8.99;64.34;101232.41;5011542;28;102145;-53
2021/12/30 00:02:37;;;;;;;23.63;16.40;;;;;;;8.98;64.32;101231.59;5014361;28;102598;-53
2021/12/30 00:05:04;;;;;;;21.23;15.38;;;;;;;8.98;64.63;101223.44;4994622;28;104008;-53
2021/12/30 00:07:31;;;;;;;20.27;14.60;;;;;;;8.98;65.01;101230.75;4995681;28;102344;-53
2021/12/30 00:09:58;;;;;;;21.70;15.02;;;;;;;8.99;64.37;101230.50;5011743;28;102365;-53
2021/12/30 00:12:35;;;;;;;22.55;14.98;;;;;;;8.98;64.56;101236.16;4996870;28;102198;-53
2021/12/30 00:15:05;;;;;;;18.65;14.93;;;;;;;8.98;65.05;101230.75;5011811;28;103886;-53
2021/12/30 00:17:31;;;;;;;;;;;;;;;8.97;64.37;101229.91;5012561;28;102392;-53
2021/12/30 00:19:58;;;;;;;19.50;14.45;;;;;;;8.98;64.86;101236.16;5008321;28;102638;-53
2021/12/30 00:22:25;;;;;;;20.65;14.45;;;;;;;8.97;64.61;101243.50;4979417;28;102574;-53
2021/12/30 00:24:52;;;;;;;18.20;14.70;;;;;;;8.98;64.24;101238.88;4993966;28;103904;-53
2021/12/30 00:27:18;;;;;;;19.33;14.73;;;;;;;8.97;63.94;101229.09;4995660;28;102589;-53
2021/12/30 00:29:46;;;;;;;17.90;13.85;;;;;;;8.96;64.99;101231.00;5010526;28;102380;-53
2021/12/30 00:32:13;;;;;;;18.10;14.77;;;;;;;8.97;64.82;101242.69;5012421;28;104238;-53
2021/12/30 00:34:39;;;;;;;26.27;15.40;;;;;;;8.95;64.01;101231.25;5010985;27;104185;-53
2021/12/30 00:37:06;;;;;;;20.25;15.30;;;;;;;8.96;64.23;101235.59;5011343;28;102189;-53
2021/12/30 00:39:33;;;;;;;18.80;14.52;;;;;;;8.95;64.53;101237.50;5012865;28;102288;-53
2021/12/30 00:42:00;;;;;;;19.45;14.80;;;;;;;8.95;64.92;101240.22;5011578;28;102800;-53
2021/12/30 00:44:29;;;;;;;25.27;14.93;;;;;;;8.95;63.87;101242.94;5012322;28;103286;-53
2021/12/30 00:46:59;;;;;;;23.10;15.18;;;;;;;8.95;64.05;101242.13;4994249;28;102208;-53
2021/12/30 00:49:25;;;;;;;18.63;13.98;;;;;;;8.95;64.27;101242.13;5014817;28;102351;-53
2021/12/30 00:51:53;;;;;;;20.45;13.77;;;;;;;8.94;64.28;101245.88;5016090;28;102412;-53
2021/12/30 00:54:19;;;;;;;19.05;14.35;;;;;;;8.95;64.78;101247.53;4995019;28;104051;-53
2021/12/30 00:56:46;;;;;;;19.83;14.35;;;;;;;8.95;64.35;101258.41;5010282;28;102165;-53
2021/12/30 00:59:13;;;;;;;21.65;14.10;;;;;;;8.95;64.62;101258.41;5012499;28;102812;-53
2021/12/30 01:01:39;;;;;;;24.90;14.93;;;;;;;8.95;64.91;101258.41;4995978;28;104133;-53
2021/12/30 01:04:08;;;;;;;18.73;14.40;;;;;;;8.94;64.54;101251.31;5013434;28;103978;-53
2021/12/30 01:06:34;;;;;;;14.50;12.57;;;;;;;8.94;64.55;101262.16;5013221;28;102310;-53
2021/12/30 01:09:02;;;;;;;18.80;13.93;;;;;;;8.93;63.96;101261.34;5011722;28;102262;-53
2021/12/30 01:11:28;;;;;;;20.55;14.02;;;;;;;8.92;64.54;101259.72;5008380;28;102195;-52
2021/12/30 01:14:13;;;;;;;17.95;13.32;;;;;;;8.93;64.76;101264.06;5009324;28;103986;-53
2021/12/30 01:16:43;;;;;;;18.80;14.18;;;;;;;8.93;63.94;101266.78;5008249;28;102171;-53
2021/12/30 01:19:42;;;;;;;19.33;14.30;;;;;;;8.93;65.21;101263.25;5012599;28;102088;-53
2021/12/30 01:22:10;;;;;;;18.13;12.90;;;;;;;8.92;64.43;101265.13;5009202;28;102316;-53
2021/12/30 01:24:37;;;;;;;18.50;13.60;;;;;;;8.92;64.55;101267.84;5007914;28;104052;-53
2021/12/30 01:27:04;;;;;;;17.60;13.77;;;;;;;8.92;64.60;101269.75;5015057;28;103225;-53
2021/12/30 01:29:31;;;;;;;19.15;13.77;;;;;;;8.90;64.50;101262.66;5015210;28;102241;-53
2021/12/30 01:31:57;;;;;;;15.95;12.25;;;;;;;8.92;64.75;101248.03;4993441;28;102562;-53
2021/12/30 01:34:27;;;;;;;15.88;12.55;;;;;;;8.90;64.62;101254.50;5016507;28;103980;-54
2021/12/30 01:36:54;;;;;;;17.27;13.18;;;;;;;8.92;64.83;101264.31;5015335;28;102393;-53
2021/12/30 01:39:22;;;;;;;18.13;13.52;;;;;;;8.90;64.53;101256.41;5014838;28;102328;-53
2021/12/30 01:41:50;;;;;;;18.42;13.32;;;;;;;8.89;64.47;101263.72;5011565;28;102353;-53
2021/12/30 01:44:16;;;;;;;17.90;13.35;;;;;;;8.90;64.86;101257.22;5014114;28;104815;-53
2021/12/30 01:46:44;;;;;;;16.65;13.02;;;;;;;8.88;64.49;101248.53;5010223;28;102132;-53
2021/12/30 01:49:12;;;;;;;15.20;12.70;;;;;;;8.90;63.97;101259.13;5012995;28;103110;-53
2021/12/30 01:51:41;;;;;;;16.33;12.90;;;;;;;8.90;64.70;101246.38;5017044;28;103984;-53
2021/12/30 01:54:08;;;;;;;16.33;12.00;;;;;;;8.89;64.67;101255.59;5013122;28;103128;-53
2021/12/30 01:56:35;;;;;;;18.92;13.93;;;;;;;8.89;64.86;101252.88;5015573;27;102445;-53
2021/12/30 01:59:02;;;;;;;15.25;12.27;;;;;;;8.89;64.33;101254.78;5014261;28;102452;-53
2021/12/30 02:01:30;;;;;;;16.38;13.43;;;;;;;8.89;64.31;101252.06;4998663;28;102677;-53
2021/12/30 02:03:57;;;;;;;15.57;11.70;;;;;;;8.88;64.18;101253.97;5011150;27;103973;-53
2021/12/30 02:06:23;;;;;;;14.15;11.60;;;;;;;8.88;64.48;101253.97;5016978;27;102039;-53
2021/12/30 02:09:02;;;;;;;15.77;12.07;;;;;;;8.87;63.66;101259.63;4998377;28;102247;-53
2021/12/30 02:11:29;;;;;;;13.75;12.13;;;;;;;8.88;64.34;101259.38;5013804;28;102404;-53
2021/12/30 02:13:56;;;;;;;16.33;12.43;;;;;;;8.87;64.05;101268.59;5011997;28;103380;-53
2021/12/30 02:16:25;;;;;;;15.68;12.35;;;;;;;8.87;64.99;101257.75;4996801;28;102143;-53
2021/12/30 02:18:52;;;;;;;16.55;12.43;;;;;;;8.86;64.37;101261.50;5013519;28;102512;-53
2021/12/30 02:21:20;;;;;;;15.13;12.15;;;;;;;8.86;64.88;101256.06;4996675;28;102524;-53
2021/12/30 02:23:47;;;;;;;15.75;12.20;;;;;;;8.86;64.66;101252.53;5014171;28;103897;-53
2021/12/30 02:26:17;;;;;;;15.77;11.95;;;;;;;8.85;64.16;101262.59;5014192;28;102302;-53
2021/12/30 02:28:44;;;;;;;15.60;12.13;;;;;;;8.86;64.47;101271.53;4997214;28;102536;-53
2021/12/30 02:31:14;;;;;;;13.95;11.32;;;;;;;8.86;64.39;101276.97;5019793;27;102274;-53
2021/12/30 02:33:41;;;;;;;15.90;12.38;;;;;;;8.86;64.55;101271.53;5012665;28;107691;-53
2021/12/30 02:36:08;;;;;;;13.90;11.73;;;;;;;8.84;64.34;101271.81;5013134;28;102631;-53
2021/12/30 02:38:44;;;;;;;14.70;11.65;;;;;;;8.84;64.55;101269.09;5014255;28;102581;-52
2021/12/30 02:41:16;;;;;;;14.85;10.90;;;;;;;8.86;64.61;101282.41;5015878;28;102394;-53
2021/12/30 02:43:44;;;;;;;12.85;10.52;;;;;;;8.85;64.05;101276.16;5005770;28;103876;-53
2021/12/30 02:46:11;;;;;;;14.55;11.07;;;;;;;8.84;63.79;101279.94;4999320;28;102209;-52
2021/12/30 02:48:41;;;;;;;13.70;10.77;;;;;;;8.84;64.16;101282.66;5020351;28;102221;-53
2021/12/30 02:51:09;;;;;;;12.77;10.50;;;;;;;8.85;64.32;101291.63;5014068;28;102134;-53
2021/12/30 02:53:36;;;;;;;13.52;10.65;;;;;;;8.84;64.29;101296.22;5015307;28;102869;-53
2021/12/30 02:56:05;;;;;;;13.07;10.65;;;;;;;8.85;63.71;101306.00;5010393;28;102273;-53
2021/12/30 02:58:32;;;;;;;13.85;11.40;;;;;;;8.84;64.15;101312.50;5008355;28;105082;-53
2021/12/30 03:01:07;;;;;;;12.50;10.65;;;;;;;8.84;63.67;101317.13;5016099;28;102700;-53
2021/12/30 03:03:35;;;;;;;12.98;10.60;;;;;;;8.84;63.77;101331.53;5013765;28;104063;-53
2021/12/30 03:06:04;;;;;;;13.23;11.25;;;;;;;8.84;63.63;101325.28;4974422;28;102924;-54
2021/12/30 03:08:30;;;;;;;;;;;;;;;8.83;64.06;101321.69;5011087;28;102245;-53
2021/12/30 03:10:57;;;;;;;12.85;10.32;;;;;;;8.84;63.92;101322.56;4997441;28;102566;-53
2021/12/30 03:13:31;;;;;;;12.25;10.40;;;;;;;8.83;64.30;101327.13;4993550;28;104713;-53
2021/12/30 03:15:59;;;;;;;13.45;10.85;;;;;;;8.82;64.24;101325.50;5011333;28;103027;-53
2021/12/30 03:18:26;;;;;;;13.05;10.88;;;;;;;8.82;63.92;101320.06;5012763;28;102165;-53
2021/12/30 03:20:54;;;;;;;14.63;10.35;;;;;;;8.82;64.47;101322.78;5012421;28;102376;-53
2021/12/30 03:23:20;;;;;;;13.05;11.02;;;;;;;8.83;64.53;101327.13;5013103;28;103777;-53
2021/12/30 03:25:48;;;;;;;12.13;10.45;;;;;;;8.83;64.14;101315.47;5014187;28;102451;-53
2021/12/30 03:28:15;;;;;;;13.52;10.65;;;;;;;8.83;63.89;101316.28;5014408;28;102730;-54
2021/12/30 03:30:43;;;;;;;13.52;11.23;;;;;;;8.82;64.37;101320.06;5011186;28;104129;-54
2021/12/30 03:33:10;;;;;;;14.43;11.13;;;;;;;8.83;64.44;101323.59;5013597;28;103969;-53
2021/12/30 03:35:37;;;;;;;13.63;10.93;;;;;;;8.81;64.39;101315.72;4993450;28;102308;-53
2021/12/30 03:38:04;;;;;;;13.18;11.60;;;;;;;8.81;64.13;101313.00;5015684;28;102661;-53
2021/12/30 03:40:31;;;;;;;12.48;10.70;;;;;;;8.83;63.74;101304.59;5011699;28;102217;-53
2021/12/30 03:42:58;;;;;;;14.55;11.20;;;;;;;8.82;63.50;101314.63;5011961;28;103919;-53
2021/12/30 03:45:24;;;;;;;15.05;11.40;;;;;;;8.82;64.59;101314.63;5014296;28;102318;-53
2021/12/30 03:47:53;;;;;;;14.73;11.13;;;;;;;8.81;63.86;101313.00;5023432;28;102690;-53
2021/12/30 03:50:23;;;;;;;15.60;12.05;;;;;;;8.80;64.22;101316.78;5016947;28;102354;-53
2021/12/30 03:52:52;;;;;;;13.35;10.93;;;;;;;8.79;64.49;101312.41;5018259;28;103130;-53
2021/12/30 03:55:20;;;;;;;14.25;11.68;;;;;;;8.81;63.51;101317.63;5014051;28;102900;-53
2021/12/30 03:57:47;;;;;;;14.38;11.27;;;;;;;8.80;63.83;101311.38;5013987;28;102484;-53
2021/12/30 04:00:15;;;;;;;14.15;11.02;;;;;;;8.79;63.47;101315.13;5016035;28;102449;-53
2021/12/30 04:02:41;;;;;;;12.18;10.70;;;;;;;8.80;64.15;101319.50;5010431;28;103901;-53
2021/12/30 04:05:10;;;;;;;14.07;11.55;;;;;;;8.80;64.04;101332.22;5014145;28;102146;-53
2021/12/30 04:07:37;;;;;;;14.18;11.20;;;;;;;8.79;64.78;101342.25;5013029;28;102440;-53
2021/12/30 04:10:06;;;;;;;13.10;11.00;;;;;;;8.80;63.56;101341.22;5012946;28;103736;-53
2021/12/30 04:12:34;;;;;;;12.32;10.77;;;;;;;8.80;63.71;101337.66;5012218;28;103930;-53
2021/12/30 04:15:01;;;;;;;14.07;11.20;;;;;;;8.80;63.58;101351.22;4993389;28;102486;-53
2021/12/30 04:17:29;;;;;;;14.35;10.93;;;;;;;8.79;63.54;101342.25;5010382;28;102415;-53
2021/12/30 04:19:56;;;;;;;16.70;11.43;;;;;;;8.79;64.01;101344.16;5017031;28;102099;-53
2021/12/30 04:22:24;;;;;;;14.30;10.98;;;;;;;8.79;64.08;101347.69;5011578;28;107914;-51
2021/12/30 04:24:50;;;;;;;12.23;10.82;;;;;;;8.79;63.88;101358.56;5012985;28;102832;-53
2021/12/30 04:27:17;;;;;;;13.60;11.93;;;;;;;8.79;64.11;101360.44;4992592;28;103448;-53
2021/12/30 04:29:45;;;;;;;15.70;11.60;;;;;;;8.80;63.59;101362.09;5013609;28;102507;-52
2021/12/30 04:32:11;;;;;;;13.85;11.32;;;;;;;8.79;64.60;101363.97;5012129;28;103947;-53
2021/12/30 04:34:37;;;;;;;15.57;11.40;;;;;;;8.79;63.74;101358.56;5008506;28;103846;-53
2021/12/30 04:37:04;;;;;;;12.30;10.07;;;;;;;8.78;63.60;101359.63;5012859;28;102155;-53
2021/12/30 04:39:32;;;;;;;14.18;11.20;;;;;;;8.79;64.07;101368.59;5012590;28;102596;-53
2021/12/30 04:41:59;;;;;;;14.00;11.65;;;;;;;8.78;63.81;101367.78;5010215;28;105396;-52
2021/12/30 04:44:25;;;;;;;13.98;11.50;;;;;;;8.78;64.41;101369.66;4994519;28;102454;-53
2021/12/30 04:46:52;;;;;;;14.32;11.52;;;;;;;8.79;63.46;101376.72;5011701;28;102480;-53
2021/12/30 04:49:19;;;;;;;17.92;12.30;;;;;;;8.78;64.11;101377.81;5013957;28;102558;-53
2021/12/30 04:51:45;;;;;;;19.77;13.77;;;;;;;8.78;64.11;101384.06;4971928;28;103700;-53
2021/12/30 04:54:11;;;;;;;14.75;11.95;;;;;;;8.78;63.49;101394.91;5005577;28;102169;-53
2021/12/30 04:56:40;;;;;;;13.75;11.18;;;;;;;8.78;64.31;101392.19;5013793;28;102380;-53
2021/12/30 04:59:06;;;;;;;16.17;11.68;;;;;;;8.78;63.72;101394.09;5013614;28;102213;-53
2021/12/30 05:01:32;;;;;;;18.45;11.48;;;;;;;8.77;64.22;101393.28;5008525;28;104025;-53
2021/12/30 05:03:59;;;;;;;20.80;12.07;;;;;;;8.76;63.87;101397.03;5015439;28;102293;-53
2021/12/30 05:06:26;;;;;;;15.77;12.10;;;;;;;8.77;63.33;101398.69;5012549;28;102201;-53
2021/12/30 05:08:55;;;;;;;17.00;12.07;;;;;;;8.77;64.33;101403.31;5017878;27;102215;-54
2021/12/30 05:11:21;;;;;;;17.80;12.50;;;;;;;8.77;63.61;101409.56;5015402;28;103969;-53
2021/12/30 05:13:49;;;;;;;15.95;12.43;;;;;;;8.77;63.60;101406.03;5015026;28;102141;-53
2021/12/30 05:16:17;;;;;;;17.00;12.13;;;;;;;8.76;64.61;101394.31;5015924;28;102385;-53
2021/12/30 05:18:45;;;;;;;18.90;12.52;;;;;;;8.76;63.91;101401.63;5016815;28;102372;-53
2021/12/30 05:21:11;;;;;;;16.75;12.77;;;;;;;8.75;63.62;101392.66;5013568;28;104101;-53
2021/12/30 05:23:38;;;;;;;16.15;11.30;;;;;;;8.76;64.15;101404.34;5000018;28;102514;-53
2021/12/30 05:26:05;;;;;;;14.52;11.90;;;;;;;8.76;63.49;101421.44;5011865;28;102169;-53
2021/12/30 05:28:32;;;;;;;15.65;12.20;;;;;;;8.76;64.06;101435.03;5015367;28;102203;-53
2021/12/30 05:31:00;;;;;;;15.60;12.02;;;;;;;8.75;63.30;101436.09;5014959;28;103694;-53
2021/12/30 05:33:26;;;;;;;16.45;12.25;;;;;;;8.76;63.38;101440.44;5015598;28;102118;-53
2021/12/30 05:35:52;;;;;;;15.05;12.73;;;;;;;8.75;63.72;101441.53;5016348;28;102180;-53
2021/12/30 05:38:19;;;;;;;15.45;12.02;;;;;;;8.75;63.94;101446.94;5015933;27;102853;-53
2021/12/30 05:40:46;;;;;;;16.38;12.88;;;;;;;8.74;64.25;101458.88;4997257;28;103730;-53
2021/12/30 05:43:12;;;;;;;17.50;12.93;;;;;;;8.75;63.38;101465.94;5014546;28;102539;-53
2021/12/30 05:45:40;;;;;;;16.85;11.93;;;;;;;8.75;63.56;101462.41;5009243;27;102313;-53
2021/12/30 05:48:07;;;;;;;17.10;11.43;;;;;;;8.75;64.30;101476.81;4996612;28;102658;-53
2021/12/30 05:50:34;;;;;;;16.27;12.27;;;;;;;8.73;63.85;101473.53;5013310;28;104111;-53
2021/12/30 05:53:01;;;;;;;16.33;11.80;;;;;;;8.74;63.31;101471.63;5015993;28;102474;-53
2021/12/30 05:55:28;;;;;;;18.98;12.25;;;;;;;8.74;63.18;101480.59;4998744;28;102629;-53
2021/12/30 05:57:56;;;;;;;16.83;12.05;;;;;;;8.74;63.60;101491.44;5016547;28;102193;-53
2021/12/30 06:00:25;;;;;;;14.77;11.82;;;;;;;8.74;64.09;101486.03;5009960;28;103865;-53
2021/12/30 06:02:52;;;;;;;14.88;11.40;;;;;;;8.74;63.61;101491.44;4982701;28;102420;-54
2021/12/30 06:05:20;;;;;;;17.70;12.90;;;;;;;8.73;63.41;101476.25;5011791;28;103666;-53
2021/12/30 06:07:48;;;;;;;14.95;12.30;;;;;;;8.74;63.86;101490.63;5015056;28;103349;-53
2021/12/30 06:10:16;;;;;;;15.68;12.32;;;;;;;8.75;63.96;101492.25;5015839;28;103929;-53
2021/12/30 06:12:43;;;;;;;17.98;12.00;;;;;;;8.74;63.70;101491.44;5011746;28;102408;-53
2021/12/30 06:15:11;;;;;;;14.18;11.88;;;;;;;8.74;63.92;101499.59;5014859;28;102420;-53
2021/12/30 06:17:38;;;;;;;17.00;11.80;;;;;;;8.74;63.98;101491.44;5013683;28;102201;-53
2021/12/30 06:20:06;;;;;;;16.85;12.27;;;;;;;8.74;63.38;101506.91;4992778;28;103932;-53
2021/12/30 06:22:35;;;;;;;12.98;11.20;;;;;;;8.73;63.14;101500.66;5015131;28;102081;-53
2021/12/30 06:25:02;;;;;;;15.30;12.32;;;;;;;8.73;64.01;101511.50;5012001;28;102158;-53
2021/12/30 06:27:29;;;;;;;17.52;12.50;;;;;;;8.73;63.52;101516.09;5005704;28;102638;-53
2021/12/30 06:29:55;;;;;;;16.58;12.55;;;;;;;8.73;63.82;101533.22;5010389;28;103862;-53
2021/12/30 06:32:22;;;;;;;18.42;11.40;;;;;;;8.73;63.97;101530.50;5015173;28;102271;-53
2021/12/30 06:34:48;;;;;;;15.25;11.82;;;;;;;8.73;63.25;101525.09;5017578;27;102813;-53
2021/12/30 06:37:15;;;;;;;18.15;12.32;;;;;;;8.74;63.13;101523.19;4990642;28;103061;-53
2021/12/30 06:39:46;;;;;;;26.10;13.70;;;;;;;8.73;64.18;101522.38;5014673;28;103726;-53
2021/12/30 06:42:13;;;;;;;32.63;13.23;;;;;;;8.72;63.06;101520.69;5013509;28;102484;-53
2021/12/30 06:44:39;;;;;;;30.92;12.70;;;;;;;8.73;63.50;101522.38;5015805;28;104046;-53
2021/12/30 06:47:06;;;;;;;22.58;12.68;;;;;;;8.73;63.46;101516.94;5011870;28;102850;-53
2021/12/30 06:49:37;;;;;;;27.10;12.00;;;;;;;8.73;64.17;101522.38;4994220;28;103915;-53
2021/12/30 06:52:06;;;;;;;25.90;11.93;;;;;;;8.74;63.77;101529.44;5016298;28;102163;-53
2021/12/30 06:54:32;;;;;;;25.75;12.43;;;;;;;8.73;63.87;101525.09;5009286;28;102521;-53
2021/12/30 06:57:02;;;;;;;25.98;11.40;;;;;;;8.73;63.13;101538.66;5015479;28;102488;-53
2021/12/30 06:59:30;;;;;;;19.77;11.68;;;;;;;8.74;64.05;101544.91;5010913;28;108475;-53
2021/12/30 07:01:57;;;;;;;19.13;11.43;;;;;;;8.73;63.97;101549.50;5017866;28;102170;-53
2021/12/30 07:04:25;;;;;;;23.23;12.88;;;;;;;8.74;63.29;101544.91;5006728;28;105361;-53
2021/12/30 07:06:52;;;;;;;22.27;11.88;;;;;;;8.73;63.38;101538.66;4977842;28;104838;-53
2021/12/30 07:09:20;;;;;;;21.50;11.52;;;;;;;8.73;64.31;101549.50;5006623;28;103984;-53
2021/12/30 07:11:50;;;;;;;21.77;12.15;;;;;;;8.73;63.15;101548.66;5011629;28;103790;-53
2021/12/30 07:14:20;;;;;;;21.42;11.73;;;;;;;8.72;63.70;101558.69;5011461;28;102692;-53
2021/12/30 07:16:47;;;;;;;22.33;11.30;;;;;;;8.73;63.66;101554.94;5006327;28;102449;-53
2021/12/30 07:19:14;;;;;;;28.83;11.85;;;;;;;8.73;63.18;101552.22;5005586;28;104119;-56
2021/12/30 07:21:43;;;;;;;22.20;11.30;;;;;;;8.74;63.89;101550.34;5007424;28;102429;-53
2021/12/30 07:24:10;;;;;;;21.63;11.60;;;;;;;8.73;63.29;101543.22;5007769;28;102632;-53
2021/12/30 07:26:37;;;;;;;19.60;11.45;;;;;;;8.72;63.90;101547.84;5009264;28;103091;-53
2021/12/30 07:29:04;;;;;;;16.73;11.05;;;;;;;8.73;63.70;101548.66;5006099;28;104071;-53
2021/12/30 07:31:32;;;;;;;15.38;10.80;;;;;;;8.72;64.12;101558.69;5009915;28;103421;-53
2021/12/30 07:33:58;;;;;;;18.58;10.57;;;;;;;8.72;63.71;101558.69;5010956;28;102777;-53
2021/12/30 07:36:25;;;;;;;15.93;10.50;;;;;;;8.72;63.46;101572.25;4993028;28;102381;-53
2021/12/30 07:38:51;;;;;;;19.40;10.98;;;;;;;8.72;63.21;101577.69;5011345;28;103932;-53
2021/12/30 07:41:18;;;;;;;14.05;10.18;;;;;;;8.72;63.40;101585.84;5012160;28;102428;-53
2021/12/30 07:43:45;;;;;;;17.30;10.68;;;;;;;8.72;63.23;101585.84;5007403;28;102447;-53
2021/12/30 07:46:12;;;;;;;16.90;10.57;;;;;;;8.74;63.57;101599.19;5011716;28;103271;-53
2021/12/30 07:48:42;;;;;;;17.70;10.50;;;;;;;8.72;63.84;101601.28;5011464;28;104173;-53
2021/12/30 07:51:08;;;;;;;18.27;11.32;;;;;;;8.73;63.61;101592.94;5012404;28;102287;-53
2021/12/30 07:53:35;;;;;;;15.27;10.32;;;;;;;8.73;63.19;101603.78;5013330;28;102743;-53
2021/12/30 07:56:02;;;;;;;15.88;10.80;;;;;;;8.72;64.31;101596.69;5011365;28;102288;-53
2021/12/30 07:58:28;;;;;;;13.75;10.10;;;;;;;8.74;63.67;101610.03;5005440;28;103944;-53
2021/12/30 08:00:55;;;;;;;15.70;10.40;;;;;;;8.73;63.23;101608.38;5012627;28;103793;-53
2021/12/30 08:03:21;;;;;;;16.42;10.27;;;;;;;8.73;63.71;101611.94;5013352;28;102362;-53
2021/12/30 08:05:50;;;;;;;15.50;9.82;;;;;;;8.72;64.22;101612.97;5013270;28;104158;-53
2021/12/30 08:08:16;;;;;;;16.20;10.70;;;;;;;8.74;64.07;101607.31;5013041;28;103515;-53
2021/12/30 08:10:43;;;;;;;14.18;10.40;;;;;;;8.73;63.20;101609.22;5013857;28;102360;-53
2021/12/30 08:13:10;;;;;;;14.90;9.88;;;;;;;8.74;63.36;101610.03;5013910;28;102973;-53
2021/12/30 08:15:36;;;;;;;13.20;10.43;;;;;;;8.73;63.26;101614.66;4992158;28;102285;-53
2021/12/30 08:18:03;;;;;;;13.70;10.50;;;;;;;8.74;63.84;101610.84;5012502;28;103930;-53
2021/12/30 08:20:29;;;;;;;14.27;10.48;;;;;;;8.73;63.45;101613.78;5002167;28;102553;-54
2021/12/30 08:22:58;;;;;;;14.32;10.38;;;;;;;8.73;63.75;101611.94;5012307;28;102279;-53
2021/12/30 08:25:24;;;;;;;14.88;10.15;;;;;;;8.74;63.68;101613.56;5014911;28;105735;-53
2021/12/30 08:27:51;;;;;;;16.33;10.80;;;;;;;8.73;63.41;101609.22;5007137;28;103889;-53
2021/12/30 08:30:20;;;;;;;15.85;9.73;;;;;;;8.74;63.26;101599.19;5013917;28;102003;-54
2021/12/30 08:32:47;;;;;;;11.80;9.38;;;;;;;8.73;62.94;101608.38;5014498;28;102149;-53
2021/12/30 08:35:15;;;;;;;12.60;9.95;;;;;;;8.73;63.38;101603.78;5012454;28;102172;-53
2021/12/30 08:37:42;;;;;;;12.73;10.17;;;;;;;8.72;63.68;101599.41;4993560;28;103975;-53
2021/12/30 08:40:13;;;;;;;14.23;9.45;;;;;;;8.73;64.08;101603.78;5013854;28;102119;-53
2021/12/30 08:42:41;;;;;;;15.13;10.43;;;;;;;8.73;63.25;101611.94;5016898;28;102752;-53
2021/12/30 08:45:09;;;;;;;14.75;9.98;;;;;;;8.74;63.81;101612.75;5018707;28;102677;-53
2021/12/30 08:47:37;;;;;;;13.13;10.40;;;;;;;8.73;63.60;101613.78;5017742;28;103920;-53
2021/12/30 08:50:09;;;;;;;12.50;10.15;;;;;;;8.74;63.76;101610.84;5010620;28;102097;-53
2021/12/30 08:52:37;;;;;;;11.65;9.60;;;;;;;8.74;63.42;101621.72;4981834;28;102782;-53
2021/12/30 08:55:05;;;;;;;14.10;9.77;;;;;;;8.75;63.76;101619.81;5013093;28;102127;-53
2021/12/30 08:57:40;;;;;;;11.60;9.63;;;;;;;8.73;63.77;101614.66;5016435;28;104402;-53
2021/12/30 09:00:11;;;;;;;15.43;10.07;;;;;;;8.74;63.69;101619.00;5016967;28;102244;-53
2021/12/30 09:02:38;;;;;;;11.73;9.43;;;;;;;8.74;63.29;101619.00;5015543;28;102762;-53
2021/12/30 09:05:06;;;;;;;15.30;9.70;;;;;;;8.74;63.76;101616.28;5017873;28;104167;-56
2021/12/30 09:07:33;;;;;;;12.48;10.13;;;;;;;8.75;64.01;101608.97;5006570;28;108046;-52
2021/12/30 09:09:59;;;;;;;11.77;9.38;;;;;;;8.75;63.93;101606.25;5017500;28;104004;-53
2021/12/30 09:12:26;;;;;;;13.05;10.00;;;;;;;8.75;63.16;101612.50;5013601;28;102475;-53
2021/12/30 09:14:53;;;;;;;10.95;8.85;;;;;;;8.75;63.90;101611.69;5013077;28;103623;-53
2021/12/30 09:17:20;;;;;;;12.63;9.70;;;;;;;8.75;63.26;101612.50;5011867;28;103936;-55
2021/12/30 09:19:47;;;;;;;12.57;10.07;;;;;;;8.76;63.53;101614.13;4992922;28;102556;-53
2021/12/30 09:22:13;;;;;;;14.13;9.95;;;;;;;8.75;63.22;101604.34;5014616;28;103570;-53
2021/12/30 09:24:39;;;;;;;13.32;9.50;;;;;;;8.76;63.69;101607.91;5022852;28;104746;-53
2021/12/30 09:27:08;;;;;;;11.68;9.23;;;;;;;8.75;63.22;101612.50;5019109;27;104034;-53
2021/12/30 09:29:35;;;;;;;12.38;9.45;;;;;;;8.76;63.45;101597.84;5002110;28;104785;-53
2021/12/30 09:32:08;;;;;;;14.45;9.35;;;;;;;8.76;63.95;101594.31;5000911;28;102751;-53
2021/12/30 09:34:35;;;;;;;12.10;9.95;;;;;;;8.76;64.13;101592.44;4994717;28;102292;-53
2021/12/30 09:37:02;;;;;;;14.30;9.80;;;;;;;8.75;64.38;101579.94;5014922;28;103938;-53
2021/12/30 09:39:29;;;;;;;13.70;10.02;;;;;;;8.76;64.14;101583.47;4992411;28;102335;-53
2021/12/30 09:41:56;;;;;;;13.10;9.73;;;;;;;8.75;63.26;101585.38;4995223;28;102586;-53
2021/12/30 09:44:23;;;;;;;13.40;11.05;;;;;;;8.76;64.08;101589.72;4994905;28;102636;-53
2021/12/30 09:46:49;;;;;;;14.48;10.82;;;;;;;8.76;63.58;101597.84;4991145;28;103922;-53
2021/12/30 09:49:18;;;;;;;13.45;9.68;;;;;;;8.76;63.60;101597.03;4995418;28;103826;-53
2021/12/30 09:51:45;;;;;;;12.57;10.05;;;;;;;8.75;63.58;101593.50;4994792;28;102247;-54
2021/12/30 09:54:13;;;;;;;13.93;10.13;;;;;;;8.75;63.93;101590.78;4984900;28;102162;-54
2021/12/30 09:56:42;;;;;;;11.20;9.30;;;;;;;8.76;63.35;101595.16;4987667;28;104049;-53
2021/12/30 09:59:11;;;;;;;12.55;9.75;;;;;;;8.76;63.93;101595.16;4993531;28;102287;-53
2021/12/30 10:01:50;;;;;;;12.73;10.23;;;;;;;8.76;64.26;101576.16;4994240;27;102576;-53
2021/12/30 10:04:18;;;;;;;14.07;9.82;;;;;;;8.77;64.05;101583.25;4995574;28;102412;-53
2021/12/30 10:06:48;;;;;;;15.15;10.07;;;;;;;8.76;63.27;101587.00;4994025;28;104212;-53
2021/12/30 10:09:16;;;;;;;12.82;9.77;;;;;;;8.77;63.53;101587.84;4993695;28;102938;-53
2021/12/30 10:11:44;;;;;;;13.68;10.18;;;;;;;8.76;63.40;101572.63;4996412;28;102210;-53
2021/12/30 10:14:11;;;;;;;12.23;9.33;;;;;;;8.76;63.92;101576.16;4989961;28;102543;-53
2021/12/30 10:16:38;;;;;;;13.25;10.70;;;;;;;8.77;64.29;101572.38;4983657;28;104130;-53
2021/12/30 10:19:05;;;;;;;14.32;9.57;;;;;;;8.77;63.38;101568.84;4993488;28;102936;-53
2021/12/30 10:21:36;;;;;;;16.50;10.95;;;;;;;8.77;63.45;101579.72;4988985;28;102316;-53
2021/12/30 10:24:04;;;;;;;13.50;10.45;;;;;;;8.77;63.84;101572.38;4988005;28;102462;-53
2021/12/30 10:26:46;;;;;;;14.27;10.48;;;;;;;8.77;64.50;101577.00;4992032;28;104011;-53
2021/12/30 10:29:13;;;;;;;13.88;11.07;;;;;;;8.78;63.11;101584.06;4987567;28;102712;-53
2021/12/30 10:31:42;;;;;;;12.10;9.57;;;;;;;8.76;63.71;101570.72;4969292;28;103834;-53
2021/12/30 10:34:10;;;;;;;12.95;10.35;;;;;;;8.78;63.82;101579.47;4993092;28;104033;-53
2021/12/30 10:36:41;;;;;;;16.10;11.10;;;;;;;8.78;64.13;101584.88;4996768;28;103883;-53
2021/12/30 10:39:16;;;;;;;13.48;9.77;;;;;;;8.77;63.47;101577.81;4994758;28;102519;-53
2021/12/30 10:41:45;;;;;;;12.82;9.52;;;;;;;8.78;63.58;101578.63;4988995;28;102621;-53
2021/12/30 10:44:13;;;;;;;12.32;10.07;;;;;;;8.78;63.30;101574.03;4996693;28;102664;-51
2021/12/30 10:46:39;;;;;;;14.10;10.45;;;;;;;8.78;63.88;101556.94;4990333;28;102431;-53
2021/12/30 10:49:09;;;;;;;12.73;9.90;;;;;;;8.78;63.38;101560.47;4997170;28;102178;-52
2021/12/30 10:51:41;;;;;;;;;;;;;;;8.78;63.59;101552.31;4991328;28;102120;-53
2021/12/30 10:54:13;;;;;;;12.95;10.02;;;;;;;8.79;63.58;101555.84;4995829;28;102629;-53
2021/12/30 10:56:40;;;;;;;12.80;10.00;;;;;;;8.79;64.17;101558.56;4992949;28;103880;-53
2021/12/30 10:59:16;;;;;;;13.13;9.60;;;;;;;8.80;63.65;101571.06;4986779;28;103430;-53
2021/12/30 11:01:45;;;;;;;12.90;9.88;;;;;;;8.79;63.61;101559.38;4993470;28;102209;-53
2021/12/30 11:04:12;;;;;;;17.67;10.35;;;;;;;8.81;63.15;101562.69;4991989;28;103836;-53
2021/12/30 11:06:41;;;;;;;13.70;10.43;;;;;;;8.80;64.41;101558.34;4993743;28;104007;-53
2021/12/30 11:09:17;;;;;;;16.00;10.18;;;;;;;8.80;63.39;101555.63;4992879;28;102329;-53
2021/12/30 11:11:47;;;;;;;14.00;10.20;;;;;;;8.81;64.25;101557.28;4993592;28;102444;-53
2021/12/30 11:14:16;;;;;;;13.63;9.88;;;;;;;8.81;64.05;101562.69;4986707;28;102219;-52